Time;durP1;ratioP1;P1;durP2;ratioP2;P2;SDS_P1;SDS_P2;PMS_P1;PMS_P2;Temp;Humidity;BMP_temperature;BMP_pressure;BME280_temperature;BME280_humidity;BME280_pressure;Samples;Min_cycle;Max_cycle;Signal;HPM_P1;HPM_P2
2023/12/19 00:01:11;;;;;;;62.70;27.60;;;;;;;2.46;87.07;100994.81;110198;1274;22166;-74
2023/12/19 00:04:02;;;;;;;58.30;24.80;;;;;;;2.48;87.06;100985.83;110245;1274;22281;-76
2023/12/19 00:06:52;;;;;;;63.00;26.90;;;;;;;2.49;87.03;100971.80;110206;1277;22168;-73
2023/12/19 00:09:42;;;;;;;;;;;;;;;2.48;87.04;100958.97;110251;1277;22364;-75
2023/12/19 00:12:33;;;;;;;62.20;25.60;;;;;;;2.49;87.21;100952.27;110280;1267;23076;-74
2023/12/19 00:15:23;;;;;;;55.90;26.00;;;;;;;2.50;87.32;100931.56;110248;1274;23033;-74
2023/12/19 00:18:14;;;;;;;51.70;22.20;;;;;;;2.51;87.50;100923.98;110244;1276;23043;-73
2023/12/19 00:21:06;;;;;;;57.00;23.50;;;;;;;2.52;87.50;100925.55;110201;1276;22157;-75
2023/12/19 00:23:56;;;;;;;51.80;23.10;;;;;;;2.54;87.74;100924.67;110175;1274;22249;-74
2023/12/19 00:26:46;;;;;;;48.90;18.90;;;;;;;2.57;87.73;100919.20;110192;1276;22177;-73
2023/12/19 00:29:37;;;;;;;49.60;20.20;;;;;;;2.59;87.81;100910.45;110192;1277;22318;-75
2023/12/19 00:32:27;;;;;;;48.10;18.50;;;;;;;2.62;87.96;100900.40;110181;1274;22822;-74
2023/12/19 00:35:18;;;;;;;49.70;18.10;;;;;;;2.63;87.76;100919.39;110284;1274;23037;-74
2023/12/19 00:38:09;;;;;;;43.40;15.30;;;;;;;2.63;87.70;100950.73;110204;1274;23189;-75
2023/12/19 00:40:59;;;;;;;58.90;19.70;;;;;;;2.62;87.77;100958.92;110161;1267;22299;-74
2023/12/19 00:43:48;;;;;;;;;;;;;;;2.63;87.86;100967.35;110167;1281;22204;-74
2023/12/19 00:46:39;;;;;;;40.10;17.80;;;;;;;2.59;87.72;100971.64;110131;1281;22317;-75
2023/12/19 00:49:28;;;;;;;;;;;;;;;2.53;87.71;100969.16;110193;1277;22433;-74
2023/12/19 00:52:18;;;;;;;44.40;18.20;;;;;;;2.52;87.87;100973.58;110199;1277;22249;-74
2023/12/19 00:55:09;;;;;;;48.80;17.20;;;;;;;2.52;87.89;100984.38;110192;1280;22891;-74
2023/12/19 00:58:00;;;;;;;43.70;17.00;;;;;;;2.53;87.96;100996.58;110277;1279;22150;-75
2023/12/19 01:00:50;;;;;;;43.00;17.00;;;;;;;2.55;88.17;100993.48;110260;1276;22163;-75
2023/12/19 01:03:42;;;;;;;42.70;17.90;;;;;;;2.59;88.45;100990.86;110291;1279;22165;-75
2023/12/19 01:06:32;;;;;;;46.90;19.20;;;;;;;2.61;88.62;100987.61;110194;1274;22309;-74
2023/12/19 01:09:23;;;;;;;53.70;21.20;;;;;;;2.64;88.71;100989.09;110302;1279;22235;-75
2023/12/19 01:12:14;;;;;;;57.10;22.70;;;;;;;2.67;88.90;100976.92;110230;1267;23165;-75
2023/12/19 01:15:06;;;;;;;63.10;24.90;;;;;;;2.70;88.94;100968.70;110191;1279;22244;-76
2023/12/19 01:17:57;;;;;;;61.10;25.00;;;;;;;2.74;88.99;100955.04;110181;1276;22132;-73
2023/12/19 01:20:47;;;;;;;;;;;;;;;2.77;88.96;100946.73;110206;1274;22447;-74
2023/12/19 01:23:36;;;;;;;;;;;;;;;2.79;89.17;100944.66;110189;1273;22464;-75
2023/12/19 01:26:27;;;;;;;57.30;23.30;;;;;;;2.81;89.23;100947.02;110188;1273;22130;-75
2023/12/19 01:29:17;;;;;;;55.80;22.10;;;;;;;2.82;89.30;100956.61;110208;1268;22291;-75
2023/12/19 01:32:08;;;;;;;61.00;24.80;;;;;;;2.82;89.26;100949.91;110188;1280;22097;-74
2023/12/19 01:34:59;;;;;;;56.10;23.60;;;;;;;2.84;89.42;100939.25;110166;1281;22072;-76
2023/12/19 01:37:49;;;;;;;62.20;24.90;;;;;;;2.86;89.43;100941.67;110190;1280;22189;-76
2023/12/19 01:40:38;;;;;;;;;;;;;;;2.88;89.50;100935.43;110114;1281;22687;-76
2023/12/19 01:43:29;;;;;;;49.80;20.20;;;;;;;2.89;89.59;100922.66;110201;1276;22250;-75
2023/12/19 01:46:18;;;;;;;;;;;;;;;2.89;89.74;100916.82;110210;1276;22549;-74
2023/12/19 01:49:09;;;;;;;44.80;18.30;;;;;;;2.90;89.70;100916.34;110186;1279;22286;-75
2023/12/19 01:52:01;;;;;;;40.10;16.00;;;;;;;2.91;89.88;100910.50;110176;1276;23079;-76
2023/12/19 01:54:51;;;;;;;38.50;16.50;;;;;;;2.94;89.92;100896.27;110196;1276;22949;-76
2023/12/19 01:57:40;;;;;;;;;;;;;;;2.97;89.93;100890.98;110221;1276;22427;-75
2023/12/19 02:00:31;;;;;;;38.10;16.40;;;;;;;2.98;89.92;100908.77;110202;1270;22343;-75
2023/12/19 02:03:22;;;;;;;37.90;17.70;;;;;;;2.97;89.84;100905.63;110167;1273;22173;-75
2023/12/19 02:06:13;;;;;;;41.40;16.90;;;;;;;2.98;89.85;100889.70;110170;1278;22853;-74
2023/12/19 02:09:04;;;;;;;39.50;15.40;;;;;;;3.02;90.00;100886.96;110192;1279;23140;-76
2023/12/19 02:11:55;;;;;;;35.80;15.30;;;;;;;3.06;90.03;100897.56;110185;1277;22211;-75
2023/12/19 02:14:46;;;;;;;37.10;16.00;;;;;;;3.08;90.10;100899.20;110263;1274;22194;-75
2023/12/19 02:17:37;;;;;;;35.20;15.10;;;;;;;3.11;90.09;100907.58;110187;1276;22089;-76
2023/12/19 02:20:27;;;;;;;34.90;14.70;;;;;;;3.11;89.87;100912.48;110197;1273;22842;-74
2023/12/19 02:23:18;;;;;;;39.50;15.90;;;;;;;3.10;89.76;100913.60;110272;1274;22655;-76
2023/12/19 02:26:09;;;;;;;42.10;17.20;;;;;;;3.08;89.77;100920.63;110234;1271;22124;-75
2023/12/19 02:28:57;;;;;;;;;;;;;;;3.07;89.74;100904.02;110157;1281;22239;-74
2023/12/19 02:31:48;;;;;;;39.80;15.70;;;;;;;3.04;89.73;100894.74;110140;1281;22265;-73
2023/12/19 02:34:39;;;;;;;36.00;15.90;;;;;;;3.03;89.87;100881.13;110131;1281;22271;-73
2023/12/19 02:37:28;;;;;;;;;;;;;;;3.04;89.96;100868.43;110193;1277;22383;-76
2023/12/19 02:40:19;;;;;;;31.40;11.70;;;;;;;3.04;89.97;100868.66;110205;1278;22163;-73
2023/12/19 02:43:09;;;;;;;31.60;12.10;;;;;;;3.05;90.03;100872.74;110190;1277;22351;-75
2023/12/19 02:46:24;;;;;;;;;;;;;;;3.08;90.14;100873.20;110227;1276;22912;-74
2023/12/19 02:49:57;;;;;;;24.60;9.30;;;;;;;3.11;90.28;100865.10;105024;1307;542564;-72
2023/12/19 02:52:48;;;;;;;25.20;9.30;;;;;;;3.09;90.24;100857.56;107215;1283;22692;-75
2023/12/19 02:55:39;;;;;;;20.00;6.20;;;;;;;3.10;90.15;100854.70;107402;1281;22632;-76
2023/12/19 02:58:30;;;;;;;20.40;7.30;;;;;;;3.11;90.04;100852.25;107185;1279;23287;-75
2023/12/19 03:01:21;;;;;;;18.70;5.90;;;;;;;3.12;90.06;100848.06;107666;1276;25472;-74
2023/12/19 03:04:12;;;;;;;26.20;7.90;;;;;;;3.12;89.94;100843.27;107439;1276;136765;-75
2023/12/19 03:07:03;;;;;;;26.60;9.70;;;;;;;3.07;89.75;100844.52;107924;1270;23462;-75
2023/12/19 03:09:54;;;;;;;27.20;9.90;;;;;;;2.96;89.81;100836.77;107881;1270;23617;-75
2023/12/19 03:12:45;;;;;;;28.30;9.20;;;;;;;2.94;90.08;100835.61;110765;1264;22320;-75
2023/12/19 03:15:34;;;;;;;;;;;;;;;2.95;90.25;100835.76;110877;1267;22308;-73
2023/12/19 03:18:25;;;;;;;27.00;9.00;;;;;;;2.95;90.37;100824.33;110842;1272;22868;-72
2023/12/19 03:21:14;;;;;;;;;;;;;;;2.97;90.39;100826.76;110847;1270;23262;-76
2023/12/19 03:24:05;;;;;;;22.60;7.00;;;;;;;2.98;90.57;100819.33;110833;1270;22734;-75
2023/12/19 03:26:56;;;;;;;25.30;7.10;;;;;;;3.00;90.49;100821.13;110783;1267;22289;-74
2023/12/19 03:29:47;;;;;;;24.50;7.80;;;;;;;3.00;90.38;100818.11;110827;1266;22240;-74
2023/12/19 03:32:38;;;;;;;24.70;7.60;;;;;;;3.03;90.45;100815.56;110799;1267;22247;-72
2023/12/19 03:35:29;;;;;;;23.00;7.80;;;;;;;3.04;90.19;100825.40;110832;1270;22223;-73
2023/12/19 03:38:18;;;;;;;;;;;;;;;3.05;90.10;100831.55;110810;1266;23102;-75
2023/12/19 03:41:09;;;;;;;23.90;8.40;;;;;;;3.04;90.17;100835.32;110804;1273;22299;-72
2023/12/19 03:43:59;;;;;;;24.20;7.80;;;;;;;3.01;90.01;100838.75;110845;1273;22159;-74
2023/12/19 03:46:48;;;;;;;;;;;;;;;2.97;90.02;100836.20;110837;1273;23140;-76
2023/12/19 03:49:39;;;;;;;24.60;8.60;;;;;;;2.98;90.14;100826.83;110816;1273;22173;-74
2023/12/19 03:52:30;;;;;;;22.20;7.60;;;;;;;2.96;90.14;100819.91;110807;1273;22285;-73
2023/12/19 03:55:20;;;;;;;;;;;;;;;2.94;90.20;100818.12;110856;1272;22371;-76
2023/12/19 03:58:10;;;;;;;25.30;7.90;;;;;;;2.93;90.32;100817.57;110979;1270;22908;-73
2023/12/19 04:01:02;;;;;;;26.80;8.90;;;;;;;2.94;90.37;100823.08;110896;1272;22932;-75
2023/12/19 04:03:52;;;;;;;28.30;8.90;;;;;;;2.95;90.40;100826.29;111015;1270;22099;-74
2023/12/19 04:06:42;;;;;;;;;;;;;;;2.95;90.29;100838.59;111067;1270;22367;-75
2023/12/19 04:09:33;;;;;;;28.70;10.70;;;;;;;2.93;90.20;100841.45;110984;1267;22131;-76
2023/12/19 04:12:24;;;;;;;32.30;11.30;;;;;;;2.93;90.34;100836.10;110993;1267;22228;-77
2023/12/19 04:15:14;;;;;;;29.30;11.20;;;;;;;2.87;89.83;100845.39;110949;1272;22181;-74
2023/12/19 04:18:05;;;;;;;33.60;13.30;;;;;;;2.83;90.06;100851.04;110855;1272;22400;-75
2023/12/19 04:20:56;;;;;;;37.60;15.10;;;;;;;2.84;90.15;100849.05;110829;1267;22160;-76
2023/12/19 04:23:47;;;;;;;39.40;15.00;;;;;;;2.84;90.22;100847.15;110847;1269;22160;-74
2023/12/19 04:26:38;;;;;;;51.40;20.40;;;;;;;2.84;90.15;100834.88;110833;1272;22711;-74
2023/12/19 04:29:28;;;;;;;55.90;24.10;;;;;;;2.83;90.26;100832.52;110809;1264;22556;-73
2023/12/19 04:32:17;;;;;;;;;;;;;;;2.83;90.40;100831.96;111355;1256;22459;-78
2023/12/19 04:35:09;;;;;;;47.60;18.60;;;;;;;2.83;90.53;100840.16;111225;1264;22201;-73
2023/12/19 04:38:00;;;;;;;44.30;19.30;;;;;;;2.83;90.63;100836.38;111191;1269;22759;-75
2023/12/19 04:40:49;;;;;;;;;;;;;;;2.82;90.71;100829.45;111243;1269;22369;-74
2023/12/19 04:43:40;;;;;;;48.00;19.40;;;;;;;2.81;90.98;100818.05;111205;1269;22187;-75
2023/12/19 04:46:31;;;;;;;59.80;22.80;;;;;;;2.83;91.03;100811.16;111526;1250;22662;-75
2023/12/19 04:49:21;;;;;;;75.30;31.30;;;;;;;2.87;91.18;100813.40;111349;1269;22172;-73
2023/12/19 04:52:12;;;;;;;84.30;34.40;;;;;;;2.90;91.21;100816.27;111462;1267;22162;-75
2023/12/19 04:55:03;;;;;;;107.70;44.50;;;;;;;2.91;91.10;100813.02;111339;1264;22168;-75
2023/12/19 04:57:54;;;;;;;127.70;50.10;;;;;;;2.91;91.09;100814.14;111400;1265;22186;-76
2023/12/19 05:00:45;;;;;;;113.80;46.10;;;;;;;2.92;91.21;100816.10;111427;1266;22863;-76
2023/12/19 05:03:37;;;;;;;;;;;;;;;2.93;91.43;100812.06;111311;1269;22310;-73
2023/12/19 05:06:28;;;;;;;189.20;78.10;;;;;;;2.93;91.25;100814.82;111196;1266;22348;-75
2023/12/19 05:09:20;;;;;;;174.10;71.40;;;;;;;2.94;91.32;100805.52;111290;1260;22188;-76
2023/12/19 05:12:10;;;;;;;153.00;63.80;;;;;;;2.96;91.25;100800.53;111254;1269;22249;-73
2023/12/19 05:15:01;;;;;;;136.60;57.30;;;;;;;2.97;91.22;100800.03;111243;1264;22344;-74
2023/12/19 05:17:52;;;;;;;113.10;49.50;;;;;;;2.98;91.18;100790.50;111293;1264;22154;-74
2023/12/19 05:20:43;;;;;;;72.80;33.60;;;;;;;2.98;90.98;100809.95;108497;1267;25393;-74
2023/12/19 05:23:34;;;;;;;76.00;32.80;;;;;;;2.95;90.63;100814.09;108462;1260;22727;-72
2023/12/19 05:26:25;;;;;;;68.20;28.70;;;;;;;2.93;90.70;100809.61;108377;1260;24403;-73
2023/12/19 05:29:16;;;;;;;65.60;29.50;;;;;;;2.93;90.75;100814.50;108167;1264;24228;-72
2023/12/19 05:32:08;;;;;;;59.20;25.90;;;;;;;2.92;90.74;100812.93;108413;1264;24205;-73
2023/12/19 05:34:59;;;;;;;55.90;24.50;;;;;;;2.90;90.68;100805.08;108330;1269;22632;-73
2023/12/19 05:37:50;;;;;;;54.50;24.70;;;;;;;2.88;90.81;100789.27;108323;1269;22672;-74
2023/12/19 05:40:42;;;;;;;55.70;24.60;;;;;;;2.86;90.78;100784.42;108370;1269;22537;-73
2023/12/19 05:43:33;;;;;;;46.60;20.20;;;;;;;2.83;90.65;100780.75;108338;1254;25274;-76
2023/12/19 05:46:24;;;;;;;42.50;18.80;;;;;;;2.81;90.50;100781.48;108510;1269;23787;-73
2023/12/19 05:49:15;;;;;;;38.30;16.60;;;;;;;2.77;90.33;100793.12;108346;1269;22537;-76
2023/12/19 05:52:07;;;;;;;36.50;13.60;;;;;;;2.71;90.12;100802.48;108341;1260;22817;-74
2023/12/19 05:54:58;;;;;;;31.30;12.40;;;;;;;2.66;89.98;100803.73;111271;1269;22172;-76
2023/12/19 05:57:49;;;;;;;30.70;10.70;;;;;;;2.59;89.79;100804.20;111332;1266;22375;-75
2023/12/19 06:00:40;;;;;;;32.90;9.50;;;;;;;2.56;89.84;100800.46;111333;1265;22168;-74
2023/12/19 06:03:30;;;;;;;29.00;10.80;;;;;;;2.52;89.87;100802.33;111238;1266;22161;-75
2023/12/19 06:06:21;;;;;;;25.90;8.40;;;;;;;2.50;89.94;100800.77;111331;1263;22309;-75
2023/12/19 06:09:12;;;;;;;24.80;7.60;;;;;;;2.46;89.75;100800.34;111353;1266;22557;-74
2023/12/19 06:12:03;;;;;;;24.80;8.20;;;;;;;2.43;89.72;100795.88;111301;1260;22144;-75
2023/12/19 06:14:54;;;;;;;23.80;7.40;;;;;;;2.41;89.76;100796.70;111407;1263;22839;-73
2023/12/19 06:17:44;;;;;;;;;;;;;;;2.40;89.84;100797.11;111403;1263;22327;-74
2023/12/19 06:20:34;;;;;;;24.20;7.80;;;;;;;2.39;90.03;100792.69;111290;1267;22343;-74
2023/12/19 06:23:25;;;;;;;25.50;7.90;;;;;;;2.35;89.74;100791.30;111395;1260;23388;-76
2023/12/19 06:26:17;;;;;;;20.90;6.70;;;;;;;2.33;89.61;100793.85;111246;1269;22338;-74
2023/12/19 06:29:09;;;;;;;25.30;8.40;;;;;;;2.31;89.64;100802.39;111264;1260;22472;-76
2023/12/19 06:31:59;;;;;;;20.90;7.00;;;;;;;2.30;89.92;100796.95;111306;1257;23061;-75
2023/12/19 06:34:50;;;;;;;18.90;6.60;;;;;;;2.30;89.73;100795.23;111265;1269;22159;-74
2023/12/19 06:37:39;;;;;;;;;;;;;;;2.27;89.77;100795.27;111432;1268;23145;-75
2023/12/19 06:40:30;;;;;;;20.90;6.60;;;;;;;2.26;89.97;100790.70;111243;1268;22888;-75
2023/12/19 06:43:21;;;;;;;18.40;6.40;;;;;;;2.26;89.80;100794.33;111324;1264;22345;-75
2023/12/19 06:46:16;;;;;;;;;;;;;;;2.23;89.61;100792.80;111535;1266;23052;-73
2023/12/19 06:49:07;;;;;;;19.50;6.40;;;;;;;2.21;89.71;100794.23;111311;1267;22152;-75
2023/12/19 06:51:58;;;;;;;26.40;8.40;;;;;;;2.22;89.78;100805.39;111367;1266;22178;-76
2023/12/19 06:54:49;;;;;;;24.30;8.00;;;;;;;2.21;89.60;100812.73;111439;1256;22212;-77
2023/12/19 06:57:38;;;;;;;;;;;;;;;2.20;89.53;100801.48;111390;1263;22963;-75
2023/12/19 07:00:29;;;;;;;23.60;7.40;;;;;;;2.21;89.87;100789.97;111305;1266;22980;-75
2023/12/19 07:03:21;;;;;;;22.30;7.10;;;;;;;2.24;89.95;100785.86;111242;1261;22272;-75
2023/12/19 07:06:15;;;;;;;23.80;8.00;;;;;;;2.24;89.86;100784.35;111336;1265;22789;-75
2023/12/19 07:09:06;;;;;;;27.20;8.70;;;;;;;2.25;89.96;100785.37;111358;1262;22143;-75
2023/12/19 07:11:57;;;;;;;29.50;8.70;;;;;;;2.26;90.05;100779.45;111243;1264;22218;-76
2023/12/19 07:14:48;;;;;;;25.80;8.30;;;;;;;2.28;89.88;100778.48;111294;1260;23100;-76
2023/12/19 07:17:39;;;;;;;24.30;7.50;;;;;;;2.28;89.79;100781.71;111244;1266;22199;-75
2023/12/19 07:20:28;;;;;;;;;;;;;;;2.26;89.66;100786.38;111262;1260;22416;-76
2023/12/19 07:23:18;;;;;;;21.70;6.50;;;;;;;2.25;89.90;100782.84;111256;1260;23023;-75
2023/12/19 07:26:19;;;;;;;23.50;7.50;;;;;;;2.26;89.92;100773.63;111265;1260;22509;-75
2023/12/19 07:29:10;;;;;;;25.00;8.70;;;;;;;2.29;90.32;100771.23;111431;1260;22077;-76
2023/12/19 07:32:01;;;;;;;28.20;9.80;;;;;;;2.32;90.38;100763.09;111395;1268;22377;-76
2023/12/19 07:34:52;;;;;;;26.10;9.00;;;;;;;2.33;90.23;100764.48;111177;1269;22504;-75
2023/12/19 07:37:43;;;;;;;25.90;8.90;;;;;;;2.35;90.20;100757.70;111260;1269;22119;-76
2023/12/19 07:40:32;;;;;;;;;;;;;;;2.40;90.38;100757.66;111296;1261;23638;-75
2023/12/19 07:43:23;;;;;;;26.30;8.60;;;;;;;2.44;90.42;100761.46;111481;1263;22391;-75
2023/12/19 07:46:14;;;;;;;25.20;9.40;;;;;;;2.48;90.46;100764.48;111507;1256;22346;-75
2023/12/19 07:49:05;;;;;;;33.40;12.20;;;;;;;2.53;90.42;100763.27;111444;1268;22184;-76
2023/12/19 07:51:56;;;;;;;37.20;12.70;;;;;;;2.58;90.59;100759.80;111388;1261;23099;-76
2023/12/19 07:54:47;;;;;;;40.30;14.60;;;;;;;2.63;90.65;100753.14;111320;1263;22127;-76
2023/12/19 07:57:38;;;;;;;36.90;16.20;;;;;;;2.67;90.67;100746.77;111452;1267;22174;-75
2023/12/19 08:00:29;;;;;;;40.10;17.10;;;;;;;2.73;90.76;100752.04;111385;1267;22141;-76
2023/12/19 08:03:20;;;;;;;40.50;16.60;;;;;;;2.79;90.67;100749.15;111254;1263;22328;-75
2023/12/19 08:06:09;;;;;;;;;;;;;;;2.84;90.62;100744.82;111324;1266;22378;-75
2023/12/19 08:08:59;;;;;;;46.10;17.10;;;;;;;2.90;90.80;100740.48;111280;1263;22228;-75
2023/12/19 08:11:50;;;;;;;46.10;19.60;;;;;;;2.96;90.82;100740.95;111381;1269;22993;-75
2023/12/19 08:14:41;;;;;;;53.20;21.70;;;;;;;3.03;90.96;100748.11;111254;1265;22567;-75
2023/12/19 08:17:32;;;;;;;48.20;17.40;;;;;;;3.09;91.15;100749.27;111280;1262;22064;-75
2023/12/19 08:20:22;;;;;;;49.10;19.60;;;;;;;3.16;91.00;100750.98;111214;1266;22353;-76
2023/12/19 08:23:13;;;;;;;53.80;20.00;;;;;;;3.21;91.04;100748.23;111430;1260;22346;-76
2023/12/19 08:26:05;;;;;;;50.90;21.80;;;;;;;3.26;91.06;100740.11;111472;1268;22195;-74
2023/12/19 08:28:56;;;;;;;68.20;26.30;;;;;;;3.30;91.11;100736.83;111288;1269;22864;-75
2023/12/19 08:31:48;;;;;;;64.60;25.80;;;;;;;3.33;91.11;100731.18;111242;1269;23009;-75
2023/12/19 08:34:41;;;;;;;64.20;23.90;;;;;;;3.37;90.83;100729.99;111265;1269;22189;-75
2023/12/19 08:37:32;;;;;;;58.20;20.60;;;;;;;3.42;90.68;100728.76;111275;1269;22180;-75
2023/12/19 08:40:23;;;;;;;48.50;18.70;;;;;;;3.47;90.62;100726.45;111385;1261;22156;-75
2023/12/19 08:43:12;;;;;;;;;;;;;;;3.51;90.73;100723.86;111284;1268;22568;-75
2023/12/19 08:46:02;;;;;;;40.60;14.30;;;;;;;3.55;90.44;100725.67;111255;1257;23018;-75
2023/12/19 08:48:53;;;;;;;38.40;14.70;;;;;;;3.60;90.29;100726.23;111276;1269;22929;-76
2023/12/19 08:51:49;;;;;;;32.30;13.10;;;;;;;3.66;90.34;100718.88;111304;1266;22089;-75
2023/12/19 08:54:40;;;;;;;28.30;11.70;;;;;;;3.72;90.41;100712.95;111436;1266;22194;-76
2023/12/19 08:57:31;;;;;;;27.30;9.70;;;;;;;3.77;90.39;100703.63;111468;1268;22098;-75
2023/12/19 09:00:21;;;;;;;;;;;;;;;3.82;90.34;100693.27;111428;1268;22318;-75
2023/12/19 09:03:11;;;;;;;29.00;9.40;;;;;;;3.87;90.64;100681.04;111431;1269;22327;-75
2023/12/19 09:06:02;;;;;;;30.10;10.20;;;;;;;3.92;90.55;100669.73;111373;1269;22107;-75
2023/12/19 09:08:53;;;;;;;24.90;10.10;;;;;;;3.98;90.33;100650.50;111387;1263;22126;-76
2023/12/19 09:11:44;;;;;;;24.50;9.40;;;;;;;4.06;90.40;100651.95;111540;1265;22724;-76
2023/12/19 09:14:36;;;;;;;24.30;7.70;;;;;;;4.14;90.29;100642.70;111506;1263;22189;-75
2023/12/19 09:17:27;;;;;;;27.10;7.60;;;;;;;4.22;90.17;100638.50;111446;1268;22293;-75
2023/12/19 09:20:18;;;;;;;26.80;8.40;;;;;;;4.31;89.97;100643.05;111439;1267;22171;-75
2023/12/19 09:23:09;;;;;;;25.00;7.30;;;;;;;4.42;89.61;100638.00;111448;1260;22138;-76
2023/12/19 09:26:00;;;;;;;24.60;8.20;;;;;;;4.53;89.24;100634.52;111287;1269;22179;-75
2023/12/19 09:28:51;;;;;;;24.80;7.40;;;;;;;4.64;89.10;100629.61;111267;1269;22135;-76
2023/12/19 09:31:46;;;;;;;24.00;5.40;;;;;;;4.73;88.45;100627.73;111280;1269;22262;-75
2023/12/19 09:34:38;;;;;;;16.30;4.40;;;;;;;4.84;87.85;100626.55;111266;1269;22844;-75
2023/12/19 09:37:31;;;;;;;18.90;4.60;;;;;;;4.95;87.43;100626.20;111428;1263;22130;-75
2023/12/19 09:40:29;;;;;;;18.30;4.20;;;;;;;5.07;87.16;100621.02;111151;1265;22525;-75
2023/12/19 09:43:20;;;;;;;20.20;4.10;;;;;;;5.15;87.07;100616.93;111436;1266;22324;-75
2023/12/19 09:46:13;;;;;;;16.00;4.00;;;;;;;5.26;86.73;100604.02;111412;1263;23017;-76
2023/12/19 09:49:04;;;;;;;20.50;4.40;;;;;;;5.36;86.73;100587.30;111332;1262;22129;-75
2023/12/19 09:51:57;;;;;;;13.90;4.00;;;;;;;5.44;86.46;100581.86;111281;1266;22140;-76
2023/12/19 09:54:49;;;;;;;13.90;3.10;;;;;;;5.55;86.32;100577.95;111269;1263;22153;-75
2023/12/19 09:57:41;;;;;;;16.50;4.00;;;;;;;5.67;86.13;100583.78;111384;1263;22159;-75
2023/12/19 10:00:34;;;;;;;15.80;3.40;;;;;;;5.79;85.85;100582.03;111357;1269;22205;-74
2023/12/19 10:03:25;;;;;;;15.20;3.10;;;;;;;5.90;85.68;100577.47;111280;1266;22227;-75
2023/12/19 10:06:15;;;;;;;14.70;2.50;;;;;;;6.03;85.35;100581.44;111345;1263;22055;-76
2023/12/19 10:09:06;;;;;;;13.80;2.40;;;;;;;6.13;85.23;100578.79;111396;1256;22184;-75
2023/12/19 10:12:08;;;;;;;11.50;2.50;;;;;;;6.22;84.96;100576.44;111350;1257;22354;-76
2023/12/19 10:15:15;;;;;;;13.80;2.40;;;;;;;6.33;84.58;100572.06;111440;1269;22160;-75
2023/12/19 10:18:13;;;;;;;11.70;2.40;;;;;;;6.46;84.52;100563.34;111341;1260;22174;-75
2023/12/19 10:21:08;;;;;;;;;;;;;;;6.57;84.53;100554.37;111419;1263;22516;-76
2023/12/19 10:24:09;;;;;;;23.70;3.00;;;;;;;6.66;84.60;100553.86;111285;1263;22388;-75
2023/12/19 10:27:02;;;;;;;13.50;2.90;;;;;;;6.75;84.22;100547.62;111278;1262;22174;-76
2023/12/19 10:29:54;;;;;;;14.80;3.00;;;;;;;6.84;84.06;100538.68;111292;1268;22916;-76
2023/12/19 10:32:46;;;;;;;14.80;3.20;;;;;;;6.91;83.82;100539.02;111440;1269;22088;-76
2023/12/19 10:35:42;;;;;;;14.90;3.00;;;;;;;6.98;83.78;100527.89;111264;1263;22152;-76
2023/12/19 10:38:47;;;;;;;12.80;2.70;;;;;;;7.07;83.37;100517.59;111271;1269;22214;-76
2023/12/19 10:41:38;;;;;;;13.50;3.30;;;;;;;7.15;82.89;100508.42;111265;1263;22163;-75
2023/12/19 10:44:30;;;;;;;13.20;3.10;;;;;;;7.23;82.70;100505.54;111402;1263;22119;-75
2023/12/19 10:47:21;;;;;;;10.80;2.30;;;;;;;7.29;82.64;100505.74;111413;1268;22326;-75
2023/12/19 10:50:12;;;;;;;13.10;2.60;;;;;;;7.34;82.53;100506.59;111434;1261;22375;-76
2023/12/19 10:53:07;;;;;;;13.20;2.00;;;;;;;7.39;82.40;100499.35;111270;1269;22150;-76
2023/12/19 10:56:01;;;;;;;10.40;2.50;;;;;;;7.44;82.24;100494.87;111305;1269;22295;-77
2023/12/19 10:58:58;;;;;;;9.10;2.00;;;;;;;7.50;81.83;100483.95;111455;1268;22191;-75
2023/12/19 11:01:54;;;;;;;12.70;1.80;;;;;;;7.53;81.39;100478.27;111255;1269;22989;-76
2023/12/19 11:04:54;;;;;;;8.80;1.80;;;;;;;7.56;80.43;100471.99;111432;1268;22562;-76
2023/12/19 11:07:44;;;;;;;;;;;;;;;7.59;79.80;100464.24;111288;1269;22937;-76
2023/12/19 11:10:38;;;;;;;12.60;2.40;;;;;;;7.62;79.47;100464.54;111273;1269;22192;-76
2023/12/19 11:13:31;;;;;;;14.90;2.00;;;;;;;7.64;79.63;100447.63;111272;1266;22164;-76
2023/12/19 11:16:27;;;;;;;8.70;1.70;;;;;;;7.66;79.45;100438.42;111404;1263;22218;-75
2023/12/19 11:19:25;;;;;;;13.60;2.20;;;;;;;7.70;79.08;100435.90;111434;1260;22157;-75
2023/12/19 11:22:26;;;;;;;11.90;1.90;;;;;;;7.72;79.22;100435.79;111261;1263;22838;-76
2023/12/19 11:25:26;;;;;;;16.70;4.40;;;;;;;7.77;78.90;100439.92;111407;1268;22417;-75
2023/12/19 11:28:18;;;;;;;16.00;4.30;;;;;;;7.80;78.96;100436.05;111500;1266;22161;-75
2023/12/19 11:31:30;;;;;;;12.70;3.10;;;;;;;7.84;79.01;100420.00;111499;1266;22193;-76
2023/12/19 11:34:24;;;;;;;17.70;3.20;;;;;;;7.88;79.28;100414.36;111240;1263;22795;-75
2023/12/19 11:37:23;;;;;;;11.90;2.30;;;;;;;7.90;79.15;100403.58;111313;1256;22916;-76
2023/12/19 11:40:49;;;;;;;11.20;2.00;;;;;;;7.92;78.82;100395.86;111424;1268;22298;-76
2023/12/19 11:43:55;;;;;;;13.40;1.80;;;;;;;7.95;78.45;100391.70;111451;1268;22630;-76
2023/12/19 11:46:46;;;;;;;10.40;1.80;;;;;;;7.97;78.36;100392.02;111429;1268;22878;-76
2023/12/19 11:49:40;;;;;;;11.60;2.30;;;;;;;7.99;78.21;100388.20;111276;1269;22259;-76
2023/12/19 11:52:36;;;;;;;13.40;2.30;;;;;;;8.01;78.19;100382.15;111266;1250;22109;-76
2023/12/19 11:55:27;;;;;;;12.20;2.30;;;;;;;8.04;77.71;100375.62;111248;1263;22903;-75
2023/12/19 11:58:26;;;;;;;12.70;2.10;;;;;;;8.06;77.70;100356.16;111271;1265;22172;-75
2023/12/19 12:01:19;;;;;;;9.80;2.00;;;;;;;8.09;77.48;100365.48;111478;1265;22867;-76
2023/12/19 12:04:11;;;;;;;12.00;2.40;;;;;;;8.10;77.10;100358.05;111432;1265;23024;-76
2023/12/19 12:07:02;;;;;;;9.50;2.00;;;;;;;8.12;77.40;100360.10;111447;1263;23072;-76
2023/12/19 12:10:04;;;;;;;12.70;2.70;;;;;;;8.14;77.18;100365.02;111487;1266;22117;-76
2023/12/19 12:12:56;;;;;;;11.10;2.60;;;;;;;8.18;77.06;100364.95;111423;1267;22980;-75
2023/12/19 12:15:52;;;;;;;10.80;2.10;;;;;;;8.21;76.87;100363.73;111440;1263;22370;-76
2023/12/19 12:18:43;;;;;;;8.80;2.10;;;;;;;8.23;76.46;100359.20;111394;1268;22475;-76
2023/12/19 12:21:32;;;;;;;;;;;;;;;8.24;76.30;100355.01;111319;1263;22317;-76
2023/12/19 12:24:24;;;;;;;15.70;3.50;;;;;;;8.26;76.54;100349.71;111331;1253;22081;-77
2023/12/19 12:27:15;;;;;;;14.10;2.90;;;;;;;8.27;76.27;100342.27;111419;1266;23539;-76
2023/12/19 12:30:12;;;;;;;13.20;3.60;;;;;;;8.29;76.21;100337.05;111338;1266;22326;-76
2023/12/19 12:33:04;;;;;;;15.30;3.40;;;;;;;8.30;76.23;100329.20;111237;1266;22257;-76
2023/12/19 12:35:55;;;;;;;17.20;3.70;;;;;;;8.31;76.34;100320.89;111251;1263;22723;-76
2023/12/19 12:38:46;;;;;;;17.60;3.00;;;;;;;8.33;76.40;100306.27;111280;1256;22159;-76
2023/12/19 12:41:39;;;;;;;14.30;3.70;;;;;;;8.35;76.55;100294.44;111246;1266;23105;-76
2023/12/19 12:44:30;;;;;;;18.00;3.70;;;;;;;8.36;76.48;100287.09;111230;1257;22152;-76
2023/12/19 12:47:27;;;;;;;21.00;3.30;;;;;;;8.38;76.51;100292.41;111228;1260;22941;-76
2023/12/19 12:50:22;;;;;;;13.90;2.60;;;;;;;8.37;76.20;100290.36;111263;1262;22680;-76
2023/12/19 12:53:16;;;;;;;18.00;4.10;;;;;;;8.35;75.97;100291.08;111172;1260;22423;-76
2023/12/19 12:56:09;;;;;;;23.10;4.50;;;;;;;8.35;76.03;100295.25;111417;1262;23119;-77
2023/12/19 12:59:06;;;;;;;21.70;5.10;;;;;;;8.36;76.14;100290.12;111414;1268;22216;-76
2023/12/19 13:01:57;;;;;;;20.10;5.00;;;;;;;8.35;76.29;100288.23;111425;1268;22146;-76
2023/12/19 13:04:48;;;;;;;20.70;5.80;;;;;;;8.34;75.85;100281.33;111451;1268;23327;-76
2023/12/19 13:07:45;;;;;;;20.40;5.60;;;;;;;8.35;75.78;100277.73;111404;1268;22228;-76
2023/12/19 13:10:37;;;;;;;20.80;5.60;;;;;;;8.35;75.68;100267.71;111424;1268;22304;-76
2023/12/19 13:13:28;;;;;;;23.40;4.80;;;;;;;8.35;75.58;100258.83;111394;1264;22320;-76
2023/12/19 13:16:20;;;;;;;19.50;4.60;;;;;;;8.34;75.57;100245.42;111453;1263;22204;-77